createdAt,value
2022-11-19T19:34:32.343Z,-1.09
2022-11-19T19:36:59.088Z,-0.96
2022-11-19T19:39:26.349Z,-0.96
2022-11-19T19:41:53.363Z,-0.96
2022-11-19T19:44:19.997Z,-1.27
2022-11-19T19:46:49.743Z,-0.97
2022-11-19T19:49:16.801Z,-1.06
2022-11-19T19:51:43.551Z,-1.12
2022-11-19T19:54:10.177Z,-0.97
2022-11-19T19:56:37.267Z,-1.17
2022-11-19T19:59:04.082Z,-0.93
2022-11-19T20:01:32.891Z,-1.05
2022-11-19T20:04:02.007Z,-1.06
2022-11-19T20:06:29.585Z,-1.02
2022-11-19T20:08:56.361Z,-1.02
2022-11-19T20:11:27.669Z,-0.98
2022-11-19T20:14:02.692Z,-1.05
2022-11-19T20:16:34.274Z,-0.86
2022-11-19T20:19:01.789Z,-0.90
2022-11-19T20:21:34.212Z,-0.97
2022-11-19T20:24:03.937Z,-0.96
2022-11-19T20:26:32.819Z,-1.00
2022-11-19T20:29:05.999Z,-0.98
2022-11-19T20:31:33.774Z,-1.02
2022-11-19T20:34:02.721Z,-0.91
2022-11-19T20:36:31.149Z,-0.89
2022-11-19T20:38:57.853Z,-0.94
2022-11-19T20:41:44.591Z,-0.93
2022-11-19T20:44:23.167Z,-0.97
2022-11-19T20:46:58.285Z,-1.13
2022-11-19T20:49:27.922Z,-1.09
2022-11-19T20:51:55.934Z,-1.03
2022-11-19T20:54:23.759Z,-0.82
2022-11-19T20:56:52.069Z,-0.88
2022-11-19T20:59:19.594Z,-1.02
2022-11-19T21:01:51.453Z,-1.13
2022-11-19T21:04:19.831Z,-1.01
2022-11-19T21:06:47.821Z,-142.10
2022-11-19T21:09:16.185Z,-1.03
2022-11-19T21:11:43.947Z,-1.03
2022-11-19T21:14:11.608Z,-1.32
2022-11-19T21:16:38.790Z,-1.04
2022-11-19T21:19:05.660Z,-1.03
2022-11-19T21:21:32.388Z,-1.25
2022-11-19T21:23:59.212Z,-1.14
2022-11-19T21:26:27.834Z,-1.07
2022-11-19T21:28:57.410Z,-1.21
2022-11-19T21:31:40.782Z,-1.27
2022-11-19T21:34:09.939Z,-1.27
2022-11-19T21:36:37.424Z,-1.04
2022-11-19T21:39:05.322Z,-1.44
2022-11-19T21:41:32.753Z,-1.05
2022-11-19T21:43:59.443Z,-0.99
2022-11-19T21:46:26.234Z,-0.99
2022-11-19T21:48:53.993Z,-1.02
2022-11-19T21:51:24.528Z,-1.04
2022-11-19T21:53:58.312Z,-1.23
2022-11-19T21:56:26.914Z,-1.16
2022-11-19T21:58:53.595Z,-1.20
2022-11-19T22:01:20.502Z,-1.06
2022-11-19T22:03:47.689Z,-1.09
2022-11-19T22:06:14.401Z,-1.12
2022-11-19T22:08:42.373Z,-0.94
2022-11-19T22:11:28.931Z,-1.35
2022-11-19T22:14:07.011Z,-0.99
2022-11-19T22:16:36.705Z,-1.14
2022-11-19T22:19:05.627Z,-1.08
2022-11-19T22:21:32.702Z,-1.00
2022-11-19T22:23:59.547Z,-0.89
2022-11-19T22:26:26.667Z,-0.89
2022-11-19T22:28:53.810Z,-0.90
2022-11-19T22:31:20.551Z,-0.89
2022-11-19T22:33:51.832Z,-1.13
2022-11-19T22:36:20.120Z,-0.85
2022-11-19T22:38:46.801Z,-0.85
2022-11-19T22:41:16.015Z,-1.00
2022-11-19T22:43:43.404Z,-1.00
2022-11-19T22:46:13.004Z,-1.37
2022-11-19T22:48:40.593Z,-1.16
2022-11-19T22:51:11.128Z,-1.10
2022-11-19T22:53:38.336Z,-1.22
2022-11-19T22:56:07.495Z,-1.06
2022-11-19T22:58:36.333Z,-1.21
2022-11-19T23:01:03.875Z,-1.29
2022-11-19T23:03:30.817Z,11.57
2022-11-19T23:05:59.360Z,-142.10
2022-11-19T23:08:26.283Z,-142.10
2022-11-19T23:11:01.624Z,-142.10
2022-11-19T23:13:33.603Z,-142.10
2022-11-19T23:16:12.047Z,-142.10
2022-11-19T23:18:46.606Z,-142.10
2022-11-19T23:21:16.229Z,-142.10
2022-11-19T23:23:43.055Z,-142.10
2022-11-19T23:26:11.870Z,-142.10
2022-11-19T23:28:39.111Z,-142.10
2022-11-19T23:31:07.697Z,-142.10
2022-11-19T23:33:34.422Z,-142.10
2022-11-19T23:36:06.230Z,-142.10
2022-11-19T23:38:34.647Z,-142.10
2022-11-19T23:41:02.099Z,-142.10
2022-11-19T23:43:29.245Z,-142.10
2022-11-19T23:46:02.978Z,-142.10
2022-11-19T23:48:30.814Z,-142.10
2022-11-19T23:51:06.156Z,-142.10
2022-11-19T23:53:33.409Z,-142.10
2022-11-19T23:56:00.668Z,-142.10
2022-11-19T23:58:27.729Z,-142.10
